sensor_id;sensor_type;location;lat;lon;timestamp;temperature;humidity
4962;DHT22;2496;52.468;13.342;2023-05-28T00:01:33;15.00;89.00
4962;DHT22;2496;52.468;13.342;2023-05-28T00:04:00;15.00;89.20
4962;DHT22;2496;52.468;13.342;2023-05-28T00:06:27;15.00;89.40
4962;DHT22;2496;52.468;13.342;2023-05-28T00:08:54;15.00;89.60
4962;DHT22;2496;52.468;13.342;2023-05-28T00:11:21;15.00;89.70
4962;DHT22;2496;52.468;13.342;2023-05-28T00:13:49;14.90;89.70
4962;DHT22;2496;52.468;13.342;2023-05-28T00:16:16;14.90;90.00
4962;DHT22;2496;52.468;13.342;2023-05-28T00:18:44;14.90;90.10
4962;DHT22;2496;52.468;13.342;2023-05-28T00:21:11;14.80;90.10
4962;DHT22;2496;52.468;13.342;2023-05-28T00:23:38;14.80;90.20
4962;DHT22;2496;52.468;13.342;2023-05-28T00:26:07;14.80;90.30
4962;DHT22;2496;52.468;13.342;2023-05-28T00:28:33;14.80;90.40
4962;DHT22;2496;52.468;13.342;2023-05-28T00:31:00;14.80;90.40
4962;DHT22;2496;52.468;13.342;2023-05-28T00:33:28;14.70;90.50
4962;DHT22;2496;52.468;13.342;2023-05-28T00:35:56;14.70;90.60
4962;DHT22;2496;52.468;13.342;2023-05-28T00:38:23;14.70;90.70
4962;DHT22;2496;52.468;13.342;2023-05-28T00:40:50;14.70;90.80
4962;DHT22;2496;52.468;13.342;2023-05-28T00:43:20;14.60;90.80
4962;DHT22;2496;52.468;13.342;2023-05-28T00:45:47;14.60;90.90
4962;DHT22;2496;52.468;13.342;2023-05-28T00:48:14;14.60;91.00
4962;DHT22;2496;52.468;13.342;2023-05-28T00:50:42;14.60;91.10
4962;DHT22;2496;52.468;13.342;2023-05-28T00:53:11;14.50;91.20
4962;DHT22;2496;52.468;13.342;2023-05-28T00:55:39;14.50;91.30
4962;DHT22;2496;52.468;13.342;2023-05-28T00:58:06;14.50;91.40
4962;DHT22;2496;52.468;13.342;2023-05-28T01:00:33;14.50;91.50
4962;DHT22;2496;52.468;13.342;2023-05-28T01:03:02;14.40;91.60
4962;DHT22;2496;52.468;13.342;2023-05-28T01:05:29;14.40;91.70
4962;DHT22;2496;52.468;13.342;2023-05-28T01:07:57;14.40;91.70
4962;DHT22;2496;52.468;13.342;2023-05-28T01:10:27;14.40;91.80
4962;DHT22;2496;52.468;13.342;2023-05-28T01:12:55;14.40;91.90
4962;DHT22;2496;52.468;13.342;2023-05-28T01:15:23;14.40;92.00
4962;DHT22;2496;52.468;13.342;2023-05-28T01:17:53;14.30;92.10
4962;DHT22;2496;52.468;13.342;2023-05-28T01:20:23;14.30;92.10
4962;DHT22;2496;52.468;13.342;2023-05-28T01:22:53;14.30;92.30
4962;DHT22;2496;52.468;13.342;2023-05-28T01:25:23;14.30;92.30
4962;DHT22;2496;52.468;13.342;2023-05-28T01:27:50;14.20;92.40
4962;DHT22;2496;52.468;13.342;2023-05-28T01:30:17;14.20;92.50
4962;DHT22;2496;52.468;13.342;2023-05-28T01:32:44;14.20;92.60
4962;DHT22;2496;52.468;13.342;2023-05-28T01:35:12;14.20;92.70
4962;DHT22;2496;52.468;13.342;2023-05-28T01:37:43;14.10;92.70
4962;DHT22;2496;52.468;13.342;2023-05-28T01:40:12;14.10;92.80
4962;DHT22;2496;52.468;13.342;2023-05-28T01:42:41;14.00;92.90
4962;DHT22;2496;52.468;13.342;2023-05-28T01:45:10;14.00;93.00
4962;DHT22;2496;52.468;13.342;2023-05-28T01:47:39;14.00;93.10
4962;DHT22;2496;52.468;13.342;2023-05-28T01:50:07;14.00;93.10
4962;DHT22;2496;52.468;13.342;2023-05-28T01:52:34;14.00;93.30
4962;DHT22;2496;52.468;13.342;2023-05-28T01:55:02;13.90;93.40
4962;DHT22;2496;52.468;13.342;2023-05-28T01:57:30;13.90;93.50
4962;DHT22;2496;52.468;13.342;2023-05-28T01:59:58;13.90;93.60
4962;DHT22;2496;52.468;13.342;2023-05-28T02:02:26;13.80;93.70
4962;DHT22;2496;52.468;13.342;2023-05-28T02:04:53;13.80;93.80
4962;DHT22;2496;52.468;13.342;2023-05-28T02:07:20;13.80;93.90
4962;DHT22;2496;52.468;13.342;2023-05-28T02:09:47;13.80;93.90
4962;DHT22;2496;52.468;13.342;2023-05-28T02:12:14;13.80;94.00
4962;DHT22;2496;52.468;13.342;2023-05-28T02:14:41;13.70;94.20
4962;DHT22;2496;52.468;13.342;2023-05-28T02:17:10;13.60;94.10
4962;DHT22;2496;52.468;13.342;2023-05-28T02:19:38;13.60;94.30
4962;DHT22;2496;52.468;13.342;2023-05-28T02:22:05;13.60;94.40
4962;DHT22;2496;52.468;13.342;2023-05-28T02:24:37;13.60;94.50
4962;DHT22;2496;52.468;13.342;2023-05-28T02:27:05;13.50;94.60
4962;DHT22;2496;52.468;13.342;2023-05-28T02:29:32;13.50;94.80
4962;DHT22;2496;52.468;13.342;2023-05-28T02:31:59;13.50;95.00
4962;DHT22;2496;52.468;13.342;2023-05-28T02:34:28;13.50;94.90
4962;DHT22;2496;52.468;13.342;2023-05-28T02:36:55;13.50;95.00
4962;DHT22;2496;52.468;13.342;2023-05-28T02:39:22;13.40;95.00
4962;DHT22;2496;52.468;13.342;2023-05-28T02:41:49;13.40;95.10
4962;DHT22;2496;52.468;13.342;2023-05-28T02:44:16;13.40;95.20
4962;DHT22;2496;52.468;13.342;2023-05-28T02:46:43;13.40;95.20
4962;DHT22;2496;52.468;13.342;2023-05-28T02:49:10;13.40;95.30
4962;DHT22;2496;52.468;13.342;2023-05-28T02:51:39;13.40;95.50
4962;DHT22;2496;52.468;13.342;2023-05-28T02:54:06;13.30;95.50
4962;DHT22;2496;52.468;13.342;2023-05-28T02:56:33;13.30;95.60
4962;DHT22;2496;52.468;13.342;2023-05-28T02:59:00;13.30;95.70
4962;DHT22;2496;52.468;13.342;2023-05-28T03:01:27;13.30;95.70
4962;DHT22;2496;52.468;13.342;2023-05-28T03:03:54;13.30;95.80
4962;DHT22;2496;52.468;13.342;2023-05-28T03:06:21;13.30;95.80
4962;DHT22;2496;52.468;13.342;2023-05-28T03:08:49;13.30;96.00
4962;DHT22;2496;52.468;13.342;2023-05-28T03:11:16;13.30;96.10
4962;DHT22;2496;52.468;13.342;2023-05-28T03:13:43;13.30;96.10
4962;DHT22;2496;52.468;13.342;2023-05-28T03:16:11;13.30;96.30
4962;DHT22;2496;52.468;13.342;2023-05-28T03:18:38;13.30;96.30
4962;DHT22;2496;52.468;13.342;2023-05-28T03:21:05;13.30;96.40
4962;DHT22;2496;52.468;13.342;2023-05-28T03:23:32;13.30;96.40
4962;DHT22;2496;52.468;13.342;2023-05-28T03:26:00;13.30;96.40
4962;DHT22;2496;52.468;13.342;2023-05-28T03:28:27;13.30;96.50
4962;DHT22;2496;52.468;13.342;2023-05-28T03:30:56;13.30;96.60
4962;DHT22;2496;52.468;13.342;2023-05-28T03:33:23;13.20;96.60
4962;DHT22;2496;52.468;13.342;2023-05-28T03:35:50;13.20;96.60
4962;DHT22;2496;52.468;13.342;2023-05-28T03:38:17;13.20;96.70
4962;DHT22;2496;52.468;13.342;2023-05-28T03:40:44;13.20;96.80
4962;DHT22;2496;52.468;13.342;2023-05-28T03:43:13;13.30;96.80
4962;DHT22;2496;52.468;13.342;2023-05-28T03:45:40;13.20;96.80
4962;DHT22;2496;52.468;13.342;2023-05-28T03:48:07;13.20;97.00
4962;DHT22;2496;52.468;13.342;2023-05-28T03:50:34;13.20;97.10
4962;DHT22;2496;52.468;13.342;2023-05-28T03:53:02;13.30;97.50
4962;DHT22;2496;52.468;13.342;2023-05-28T03:55:29;13.30;97.10
4962;DHT22;2496;52.468;13.342;2023-05-28T03:57:56;13.30;97.10
4962;DHT22;2496;52.468;13.342;2023-05-28T04:00:24;13.30;97.10
4962;DHT22;2496;52.468;13.342;2023-05-28T04:02:51;13.30;97.20
4962;DHT22;2496;52.468;13.342;2023-05-28T04:05:18;13.30;97.20
4962;DHT22;2496;52.468;13.342;2023-05-28T04:07:45;13.30;97.30
4962;DHT22;2496;52.468;13.342;2023-05-28T04:10:12;13.30;97.30
4962;DHT22;2496;52.468;13.342;2023-05-28T04:12:39;13.40;97.40
4962;DHT22;2496;52.468;13.342;2023-05-28T04:15:07;13.40;97.30
4962;DHT22;2496;52.468;13.342;2023-05-28T04:17:36;13.40;97.30
4962;DHT22;2496;52.468;13.342;2023-05-28T04:20:03;13.40;97.40
4962;DHT22;2496;52.468;13.342;2023-05-28T04:22:31;13.40;97.50
4962;DHT22;2496;52.468;13.342;2023-05-28T04:24:59;13.40;97.40
4962;DHT22;2496;52.468;13.342;2023-05-28T04:27:27;13.40;97.40
4962;DHT22;2496;52.468;13.342;2023-05-28T04:29:54;13.40;97.30
4962;DHT22;2496;52.468;13.342;2023-05-28T04:32:22;13.50;97.20
4962;DHT22;2496;52.468;13.342;2023-05-28T04:34:50;13.40;97.20
4962;DHT22;2496;52.468;13.342;2023-05-28T04:37:19;13.40;97.40
4962;DHT22;2496;52.468;13.342;2023-05-28T04:39:47;13.40;97.10
4962;DHT22;2496;52.468;13.342;2023-05-28T04:42:15;13.40;97.10
4962;DHT22;2496;52.468;13.342;2023-05-28T04:44:42;13.50;97.00
4962;DHT22;2496;52.468;13.342;2023-05-28T04:47:10;13.40;97.20
4962;DHT22;2496;52.468;13.342;2023-05-28T04:49:38;13.40;97.10
4962;DHT22;2496;52.468;13.342;2023-05-28T04:52:07;13.50;97.10
4962;DHT22;2496;52.468;13.342;2023-05-28T04:54:35;13.50;97.00
4962;DHT22;2496;52.468;13.342;2023-05-28T04:57:02;13.60;97.00
4962;DHT22;2496;52.468;13.342;2023-05-28T04:59:30;13.50;97.20
4962;DHT22;2496;52.468;13.342;2023-05-28T05:01:57;13.60;97.10
4962;DHT22;2496;52.468;13.342;2023-05-28T05:04:24;13.70;97.00
4962;DHT22;2496;52.468;13.342;2023-05-28T05:06:51;13.70;96.90
4962;DHT22;2496;52.468;13.342;2023-05-28T05:09:20;13.70;96.90
4962;DHT22;2496;52.468;13.342;2023-05-28T05:11:48;13.80;96.80
4962;DHT22;2496;52.468;13.342;2023-05-28T05:14:15;13.80;96.70
4962;DHT22;2496;52.468;13.342;2023-05-28T05:16:42;13.80;97.00
4962;DHT22;2496;52.468;13.342;2023-05-28T05:19:11;13.80;97.00
4962;DHT22;2496;52.468;13.342;2023-05-28T05:21:38;13.90;97.20
4962;DHT22;2496;52.468;13.342;2023-05-28T05:24:05;14.00;96.90
4962;DHT22;2496;52.468;13.342;2023-05-28T05:26:34;14.10;96.60
4962;DHT22;2496;52.468;13.342;2023-05-28T05:29:01;14.20;96.40
4962;DHT22;2496;52.468;13.342;2023-05-28T05:31:28;14.40;96.10
4962;DHT22;2496;52.468;13.342;2023-05-28T05:33:56;14.60;95.80
4962;DHT22;2496;52.468;13.342;2023-05-28T05:36:23;14.90;95.70
4962;DHT22;2496;52.468;13.342;2023-05-28T05:38:50;15.30;95.10
4962;DHT22;2496;52.468;13.342;2023-05-28T05:41:17;15.60;94.50
4962;DHT22;2496;52.468;13.342;2023-05-28T05:43:46;15.70;94.40
4962;DHT22;2496;52.468;13.342;2023-05-28T05:46:13;15.80;94.30
4962;DHT22;2496;52.468;13.342;2023-05-28T05:48:40;15.90;94.10
4962;DHT22;2496;52.468;13.342;2023-05-28T05:51:07;15.90;93.60
4962;DHT22;2496;52.468;13.342;2023-05-28T05:53:39;16.00;93.50
4962;DHT22;2496;52.468;13.342;2023-05-28T05:56:08;16.00;92.70
4962;DHT22;2496;52.468;13.342;2023-05-28T05:58:35;16.20;92.50
4962;DHT22;2496;52.468;13.342;2023-05-28T06:01:04;16.20;91.80
4962;DHT22;2496;52.468;13.342;2023-05-28T06:03:31;16.40;91.90
4962;DHT22;2496;52.468;13.342;2023-05-28T06:05:58;16.50;91.40
4962;DHT22;2496;52.468;13.342;2023-05-28T06:08:25;16.70;91.10
4962;DHT22;2496;52.468;13.342;2023-05-28T06:10:53;16.80;91.40
4962;DHT22;2496;52.468;13.342;2023-05-28T06:13:20;16.90;91.40
4962;DHT22;2496;52.468;13.342;2023-05-28T06:15:47;17.10;91.40
4962;DHT22;2496;52.468;13.342;2023-05-28T06:18:15;17.20;91.20
4962;DHT22;2496;52.468;13.342;2023-05-28T06:20:42;17.30;90.90
4962;DHT22;2496;52.468;13.342;2023-05-28T06:23:09;17.40;90.60
4962;DHT22;2496;52.468;13.342;2023-05-28T06:25:36;17.50;90.40
4962;DHT22;2496;52.468;13.342;2023-05-28T06:28:04;17.50;90.10
4962;DHT22;2496;52.468;13.342;2023-05-28T06:30:31;17.60;89.60
4962;DHT22;2496;52.468;13.342;2023-05-28T06:32:58;17.50;88.20
4962;DHT22;2496;52.468;13.342;2023-05-28T06:35:27;17.60;88.20
4962;DHT22;2496;52.468;13.342;2023-05-28T06:37:54;17.70;87.80
4962;DHT22;2496;52.468;13.342;2023-05-28T06:40:21;17.70;86.20
4962;DHT22;2496;52.468;13.342;2023-05-28T06:42:49;17.80;85.90
4962;DHT22;2496;52.468;13.342;2023-05-28T06:45:16;17.90;84.60
4962;DHT22;2496;52.468;13.342;2023-05-28T06:47:44;17.90;84.20
4962;DHT22;2496;52.468;13.342;2023-05-28T06:50:11;18.00;83.40
4962;DHT22;2496;52.468;13.342;2023-05-28T06:52:39;18.10;82.10
4962;DHT22;2496;52.468;13.342;2023-05-28T06:55:07;18.20;82.10
4962;DHT22;2496;52.468;13.342;2023-05-28T06:57:34;18.30;81.70
4962;DHT22;2496;52.468;13.342;2023-05-28T07:00:02;18.40;81.70
4962;DHT22;2496;52.468;13.342;2023-05-28T07:02:34;18.50;81.70
4962;DHT22;2496;52.468;13.342;2023-05-28T07:05:01;18.60;80.20
4962;DHT22;2496;52.468;13.342;2023-05-28T07:07:30;18.70;78.90
4962;DHT22;2496;52.468;13.342;2023-05-28T07:09:58;18.80;79.10
4962;DHT22;2496;52.468;13.342;2023-05-28T07:12:25;18.90;76.30
4962;DHT22;2496;52.468;13.342;2023-05-28T07:14:52;19.00;76.90
4962;DHT22;2496;52.468;13.342;2023-05-28T07:17:20;19.10;76.60
4962;DHT22;2496;52.468;13.342;2023-05-28T07:19:47;19.20;75.70
4962;DHT22;2496;52.468;13.342;2023-05-28T07:22:14;19.40;75.80
4962;DHT22;2496;52.468;13.342;2023-05-28T07:24:42;19.40;75.80
4962;DHT22;2496;52.468;13.342;2023-05-28T07:27:10;19.40;75.40
4962;DHT22;2496;52.468;13.342;2023-05-28T07:29:37;19.50;75.10
4962;DHT22;2496;52.468;13.342;2023-05-28T07:32:04;19.70;74.30
4962;DHT22;2496;52.468;13.342;2023-05-28T07:34:32;19.80;74.40
4962;DHT22;2496;52.468;13.342;2023-05-28T07:36:59;19.90;74.60
4962;DHT22;2496;52.468;13.342;2023-05-28T07:39:26;20.10;74.40
4962;DHT22;2496;52.468;13.342;2023-05-28T07:41:53;20.10;71.80
4962;DHT22;2496;52.468;13.342;2023-05-28T07:44:21;20.30;72.40
4962;DHT22;2496;52.468;13.342;2023-05-28T07:46:48;20.50;70.10
4962;DHT22;2496;52.468;13.342;2023-05-28T07:49:15;20.50;70.20
4962;DHT22;2496;52.468;13.342;2023-05-28T07:51:43;20.60;69.80
4962;DHT22;2496;52.468;13.342;2023-05-28T07:54:11;20.80;68.80
4962;DHT22;2496;52.468;13.342;2023-05-28T07:56:38;20.90;68.70
4962;DHT22;2496;52.468;13.342;2023-05-28T07:59:06;21.10;65.80
4962;DHT22;2496;52.468;13.342;2023-05-28T08:01:34;21.10;66.90
4962;DHT22;2496;52.468;13.342;2023-05-28T08:04:01;21.10;67.30
4962;DHT22;2496;52.468;13.342;2023-05-28T08:06:28;21.40;65.40
4962;DHT22;2496;52.468;13.342;2023-05-28T08:08:57;21.40;65.30
4962;DHT22;2496;52.468;13.342;2023-05-28T08:11:24;21.40;63.50
4962;DHT22;2496;52.468;13.342;2023-05-28T08:13:51;21.40;62.80
4962;DHT22;2496;52.468;13.342;2023-05-28T08:16:18;21.60;62.90
4962;DHT22;2496;52.468;13.342;2023-05-28T08:18:46;21.80;65.50
4962;DHT22;2496;52.468;13.342;2023-05-28T08:21:13;22.00;64.40
4962;DHT22;2496;52.468;13.342;2023-05-28T08:23:40;22.20;62.10
4962;DHT22;2496;52.468;13.342;2023-05-28T08:26:07;22.30;62.70
4962;DHT22;2496;52.468;13.342;2023-05-28T08:28:35;22.40;61.60
4962;DHT22;2496;52.468;13.342;2023-05-28T08:31:02;22.50;61.30
4962;DHT22;2496;52.468;13.342;2023-05-28T08:33:29;22.60;62.30
4962;DHT22;2496;52.468;13.342;2023-05-28T08:35:59;22.70;60.10
4962;DHT22;2496;52.468;13.342;2023-05-28T08:38:28;23.00;60.10
4962;DHT22;2496;52.468;13.342;2023-05-28T08:40:55;23.10;59.40
4962;DHT22;2496;52.468;13.342;2023-05-28T08:43:23;23.30;58.20
4962;DHT22;2496;52.468;13.342;2023-05-28T08:45:51;23.20;57.80
4962;DHT22;2496;52.468;13.342;2023-05-28T08:48:18;23.10;57.40
4962;DHT22;2496;52.468;13.342;2023-05-28T08:50:47;23.10;57.80
4962;DHT22;2496;52.468;13.342;2023-05-28T08:53:20;23.20;58.40
4962;DHT22;2496;52.468;13.342;2023-05-28T08:55:47;23.20;58.40
4962;DHT22;2496;52.468;13.342;2023-05-28T08:58:16;23.20;58.40
4962;DHT22;2496;52.468;13.342;2023-05-28T09:00:43;23.40;58.70
4962;DHT22;2496;52.468;13.342;2023-05-28T09:03:11;23.40;57.60
4962;DHT22;2496;52.468;13.342;2023-05-28T09:05:40;23.70;57.00
4962;DHT22;2496;52.468;13.342;2023-05-28T09:08:09;23.80;56.90
4962;DHT22;2496;52.468;13.342;2023-05-28T09:10:38;23.50;57.00
4962;DHT22;2496;52.468;13.342;2023-05-28T09:13:06;23.40;56.90
4962;DHT22;2496;52.468;13.342;2023-05-28T09:15:33;23.40;57.40
4962;DHT22;2496;52.468;13.342;2023-05-28T09:18:03;23.60;57.10
4962;DHT22;2496;52.468;13.342;2023-05-28T09:20:30;23.70;56.50
4962;DHT22;2496;52.468;13.342;2023-05-28T09:22:58;23.80;56.70
4962;DHT22;2496;52.468;13.342;2023-05-28T09:25:26;23.90;56.70
4962;DHT22;2496;52.468;13.342;2023-05-28T09:27:56;24.00;57.00
4962;DHT22;2496;52.468;13.342;2023-05-28T09:30:25;24.00;56.90
4962;DHT22;2496;52.468;13.342;2023-05-28T09:32:56;24.10;57.00
4962;DHT22;2496;52.468;13.342;2023-05-28T09:35:25;24.00;56.20
4962;DHT22;2496;52.468;13.342;2023-05-28T09:38:00;23.70;55.50
4962;DHT22;2496;52.468;13.342;2023-05-28T09:40:27;23.70;55.60
4962;DHT22;2496;52.468;13.342;2023-05-28T09:42:55;23.80;55.30
4962;DHT22;2496;52.468;13.342;2023-05-28T09:45:24;23.70;54.90
4962;DHT22;2496;52.468;13.342;2023-05-28T09:47:51;23.60;55.30
4962;DHT22;2496;52.468;13.342;2023-05-28T09:50:18;23.40;54.70
4962;DHT22;2496;52.468;13.342;2023-05-28T09:52:46;23.10;55.10
4962;DHT22;2496;52.468;13.342;2023-05-28T09:55:14;22.90;55.50
4962;DHT22;2496;52.468;13.342;2023-05-28T09:57:46;22.80;54.80
4962;DHT22;2496;52.468;13.342;2023-05-28T10:00:20;22.80;54.80
4962;DHT22;2496;52.468;13.342;2023-05-28T10:02:58;22.70;54.80
4962;DHT22;2496;52.468;13.342;2023-05-28T10:05:32;22.50;55.90
4962;DHT22;2496;52.468;13.342;2023-05-28T10:08:00;22.20;56.50
4962;DHT22;2496;52.468;13.342;2023-05-28T10:10:29;22.00;56.90
4962;DHT22;2496;52.468;13.342;2023-05-28T10:12:57;21.90;57.10
4962;DHT22;2496;52.468;13.342;2023-05-28T10:15:26;21.90;57.40
4962;DHT22;2496;52.468;13.342;2023-05-28T10:17:54;21.70;57.70
4962;DHT22;2496;52.468;13.342;2023-05-28T10:20:21;21.90;57.30
4962;DHT22;2496;52.468;13.342;2023-05-28T10:22:49;21.90;55.60
4962;DHT22;2496;52.468;13.342;2023-05-28T10:25:17;21.90;55.70
4962;DHT22;2496;52.468;13.342;2023-05-28T10:27:45;21.80;56.70
4962;DHT22;2496;52.468;13.342;2023-05-28T10:30:31;21.80;57.20
4962;DHT22;2496;52.468;13.342;2023-05-28T10:32:59;21.80;56.90
4962;DHT22;2496;52.468;13.342;2023-05-28T10:35:26;21.90;55.70
4962;DHT22;2496;52.468;13.342;2023-05-28T10:38:05;21.90;56.30
4962;DHT22;2496;52.468;13.342;2023-05-28T10:40:33;21.90;56.20
4962;DHT22;2496;52.468;13.342;2023-05-28T10:43:01;21.90;55.90
4962;DHT22;2496;52.468;13.342;2023-05-28T10:45:36;22.00;56.30
4962;DHT22;2496;52.468;13.342;2023-05-28T10:48:03;22.00;56.30
4962;DHT22;2496;52.468;13.342;2023-05-28T10:50:30;22.00;56.50
4962;DHT22;2496;52.468;13.342;2023-05-28T10:53:04;22.00;55.10
4962;DHT22;2496;52.468;13.342;2023-05-28T10:55:48;22.00;55.10
4962;DHT22;2496;52.468;13.342;2023-05-28T10:58:25;21.90;55.90
4962;DHT22;2496;52.468;13.342;2023-05-28T11:01:00;21.90;56.10
4962;DHT22;2496;52.468;13.342;2023-05-28T11:03:43;21.90;54.30
4962;DHT22;2496;52.468;13.342;2023-05-28T11:06:11;21.90;54.20
4962;DHT22;2496;52.468;13.342;2023-05-28T11:08:43;21.90;54.70
4962;DHT22;2496;52.468;13.342;2023-05-28T11:11:11;21.90;53.90
4962;DHT22;2496;52.468;13.342;2023-05-28T11:13:41;21.90;53.80
4962;DHT22;2496;52.468;13.342;2023-05-28T11:16:11;21.90;54.20
4962;DHT22;2496;52.468;13.342;2023-05-28T11:18:38;22.10;55.00
4962;DHT22;2496;52.468;13.342;2023-05-28T11:21:06;22.20;54.60
4962;DHT22;2496;52.468;13.342;2023-05-28T11:23:34;22.30;54.20
4962;DHT22;2496;52.468;13.342;2023-05-28T11:26:03;22.40;54.10
4962;DHT22;2496;52.468;13.342;2023-05-28T11:28:30;22.40;54.20
4962;DHT22;2496;52.468;13.342;2023-05-28T11:30:58;22.40;53.70
4962;DHT22;2496;52.468;13.342;2023-05-28T11:33:29;22.10;53.80
4962;DHT22;2496;52.468;13.342;2023-05-28T11:35:58;22.10;54.80
4962;DHT22;2496;52.468;13.342;2023-05-28T11:38:26;22.30;53.60
4962;DHT22;2496;52.468;13.342;2023-05-28T11:41:00;22.30;54.30
4962;DHT22;2496;52.468;13.342;2023-05-28T11:43:27;22.30;54.80
4962;DHT22;2496;52.468;13.342;2023-05-28T11:45:57;22.40;55.10
4962;DHT22;2496;52.468;13.342;2023-05-28T11:48:25;22.40;54.60
4962;DHT22;2496;52.468;13.342;2023-05-28T11:51:00;22.40;54.60
4962;DHT22;2496;52.468;13.342;2023-05-28T11:53:41;22.30;54.10
4962;DHT22;2496;52.468;13.342;2023-05-28T11:56:09;22.30;54.10
4962;DHT22;2496;52.468;13.342;2023-05-28T11:58:37;22.40;55.10
4962;DHT22;2496;52.468;13.342;2023-05-28T12:01:07;22.40;54.90
4962;DHT22;2496;52.468;13.342;2023-05-28T12:03:34;22.50;55.00
4962;DHT22;2496;52.468;13.342;2023-05-28T12:06:03;22.60;55.70
4962;DHT22;2496;52.468;13.342;2023-05-28T12:08:30;22.60;54.90
4962;DHT22;2496;52.468;13.342;2023-05-28T12:11:01;22.60;55.40
4962;DHT22;2496;52.468;13.342;2023-05-28T12:13:32;22.60;55.50
4962;DHT22;2496;52.468;13.342;2023-05-28T12:16:07;22.60;55.70
4962;DHT22;2496;52.468;13.342;2023-05-28T12:18:38;22.60;56.30
4962;DHT22;2496;52.468;13.342;2023-05-28T12:21:11;22.70;56.00
4962;DHT22;2496;52.468;13.342;2023-05-28T12:23:38;22.80;56.30
4962;DHT22;2496;52.468;13.342;2023-05-28T12:26:09;22.70;55.80
4962;DHT22;2496;52.468;13.342;2023-05-28T12:28:37;22.60;55.50
4962;DHT22;2496;52.468;13.342;2023-05-28T12:31:06;22.60;56.10
4962;DHT22;2496;52.468;13.342;2023-05-28T12:33:33;22.60;55.90
4962;DHT22;2496;52.468;13.342;2023-05-28T12:36:00;22.60;56.30
4962;DHT22;2496;52.468;13.342;2023-05-28T12:38:29;22.80;56.50
4962;DHT22;2496;52.468;13.342;2023-05-28T12:40:56;22.80;55.80
4962;DHT22;2496;52.468;13.342;2023-05-28T12:43:23;22.80;55.40
4962;DHT22;2496;52.468;13.342;2023-05-28T12:45:50;22.90;55.00
4962;DHT22;2496;52.468;13.342;2023-05-28T12:48:17;22.60;55.50
4962;DHT22;2496;52.468;13.342;2023-05-28T12:50:44;22.60;55.60
4962;DHT22;2496;52.468;13.342;2023-05-28T12:53:11;22.70;55.20
4962;DHT22;2496;52.468;13.342;2023-05-28T12:55:40;22.70;55.00
4962;DHT22;2496;52.468;13.342;2023-05-28T12:58:07;22.70;54.70
4962;DHT22;2496;52.468;13.342;2023-05-28T13:00:33;22.70;54.10
4962;DHT22;2496;52.468;13.342;2023-05-28T13:03:01;22.70;54.10
4962;DHT22;2496;52.468;13.342;2023-05-28T13:05:29;22.90;54.10
4962;DHT22;2496;52.468;13.342;2023-05-28T13:07:58;22.90;54.30
4962;DHT22;2496;52.468;13.342;2023-05-28T13:10:25;23.00;54.10
4962;DHT22;2496;52.468;13.342;2023-05-28T13:12:54;23.10;54.00
4962;DHT22;2496;52.468;13.342;2023-05-28T13:15:21;23.20;53.00
4962;DHT22;2496;52.468;13.342;2023-05-28T13:17:48;23.10;52.50
4962;DHT22;2496;52.468;13.342;2023-05-28T13:20:15;23.00;52.50
4962;DHT22;2496;52.468;13.342;2023-05-28T13:22:42;22.80;53.10
4962;DHT22;2496;52.468;13.342;2023-05-28T13:25:10;22.80;53.30
4962;DHT22;2496;52.468;13.342;2023-05-28T13:27:37;22.90;53.30
4962;DHT22;2496;52.468;13.342;2023-05-28T13:30:07;23.10;52.30
4962;DHT22;2496;52.468;13.342;2023-05-28T13:32:34;23.20;52.50
4962;DHT22;2496;52.468;13.342;2023-05-28T13:35:01;23.20;52.60
4962;DHT22;2496;52.468;13.342;2023-05-28T13:37:28;23.30;52.70
4962;DHT22;2496;52.468;13.342;2023-05-28T13:39:58;23.30;51.60
4962;DHT22;2496;52.468;13.342;2023-05-28T13:42:25;23.30;52.40
4962;DHT22;2496;52.468;13.342;2023-05-28T13:44:53;23.20;52.20
4962;DHT22;2496;52.468;13.342;2023-05-28T13:47:21;23.20;52.50
4962;DHT22;2496;52.468;13.342;2023-05-28T13:49:48;23.20;53.20
4962;DHT22;2496;52.468;13.342;2023-05-28T13:52:15;23.20;53.60
4962;DHT22;2496;52.468;13.342;2023-05-28T13:54:42;23.20;53.10
4962;DHT22;2496;52.468;13.342;2023-05-28T13:57:10;23.30;51.80
4962;DHT22;2496;52.468;13.342;2023-05-28T13:59:37;23.30;52.60
4962;DHT22;2496;52.468;13.342;2023-05-28T14:02:04;23.30;52.60
4962;DHT22;2496;52.468;13.342;2023-05-28T14:04:33;23.20;53.00
4962;DHT22;2496;52.468;13.342;2023-05-28T14:07:00;23.20;53.20
4962;DHT22;2496;52.468;13.342;2023-05-28T14:09:27;23.20;51.90
4962;DHT22;2496;52.468;13.342;2023-05-28T14:11:54;23.20;52.40
4962;DHT22;2496;52.468;13.342;2023-05-28T14:14:21;23.10;53.30
4962;DHT22;2496;52.468;13.342;2023-05-28T14:16:49;23.10;52.90
4962;DHT22;2496;52.468;13.342;2023-05-28T14:19:16;23.10;53.00
4962;DHT22;2496;52.468;13.342;2023-05-28T14:21:44;23.00;52.70
4962;DHT22;2496;52.468;13.342;2023-05-28T14:24:12;22.90;52.80
4962;DHT22;2496;52.468;13.342;2023-05-28T14:26:39;22.90;53.00
4962;DHT22;2496;52.468;13.342;2023-05-28T14:29:06;23.00;53.20
4962;DHT22;2496;52.468;13.342;2023-05-28T14:31:33;23.00;52.50
4962;DHT22;2496;52.468;13.342;2023-05-28T14:34:00;22.90;52.40
4962;DHT22;2496;52.468;13.342;2023-05-28T14:36:27;22.80;52.90
4962;DHT22;2496;52.468;13.342;2023-05-28T14:38:55;22.80;53.50
4962;DHT22;2496;52.468;13.342;2023-05-28T14:41:22;22.90;53.70
4962;DHT22;2496;52.468;13.342;2023-05-28T14:43:49;23.00;53.90
4962;DHT22;2496;52.468;13.342;2023-05-28T14:46:16;23.10;54.30
4962;DHT22;2496;52.468;13.342;2023-05-28T14:48:43;23.20;53.80
4962;DHT22;2496;52.468;13.342;2023-05-28T14:51:10;23.20;54.10
4962;DHT22;2496;52.468;13.342;2023-05-28T14:53:38;23.30;53.60
4962;DHT22;2496;52.468;13.342;2023-05-28T14:56:06;23.20;53.50
4962;DHT22;2496;52.468;13.342;2023-05-28T14:58:34;23.30;52.70
4962;DHT22;2496;52.468;13.342;2023-05-28T15:01:01;23.20;52.80
4962;DHT22;2496;52.468;13.342;2023-05-28T15:03:29;23.10;53.10
4962;DHT22;2496;52.468;13.342;2023-05-28T15:05:56;23.00;52.60
4962;DHT22;2496;52.468;13.342;2023-05-28T15:08:23;23.00;52.30
4962;DHT22;2496;52.468;13.342;2023-05-28T15:10:54;23.00;52.30
4962;DHT22;2496;52.468;13.342;2023-05-28T15:13:25;23.00;52.70
4962;DHT22;2496;52.468;13.342;2023-05-28T15:15:52;23.00;53.40
4962;DHT22;2496;52.468;13.342;2023-05-28T15:18:19;23.10;53.60
4962;DHT22;2496;52.468;13.342;2023-05-28T15:20:46;23.20;53.60
4962;DHT22;2496;52.468;13.342;2023-05-28T15:23:14;23.30;52.60
4962;DHT22;2496;52.468;13.342;2023-05-28T15:25:41;23.30;53.10
4962;DHT22;2496;52.468;13.342;2023-05-28T15:28:10;23.30;53.80
4962;DHT22;2496;52.468;13.342;2023-05-28T15:30:39;23.30;54.20
4962;DHT22;2496;52.468;13.342;2023-05-28T15:33:06;23.20;53.60
4962;DHT22;2496;52.468;13.342;2023-05-28T15:35:35;23.20;53.70
4962;DHT22;2496;52.468;13.342;2023-05-28T15:38:03;23.10;54.50
4962;DHT22;2496;52.468;13.342;2023-05-28T15:40:30;23.00;54.60
4962;DHT22;2496;52.468;13.342;2023-05-28T15:43:02;23.00;54.50
4962;DHT22;2496;52.468;13.342;2023-05-28T15:45:29;23.00;54.60
4962;DHT22;2496;52.468;13.342;2023-05-28T15:47:58;23.00;54.70
4962;DHT22;2496;52.468;13.342;2023-05-28T15:50:26;23.00;54.00